Time;durP1;ratioP1;P1;durP2;ratioP2;P2;SDS_P1;SDS_P2;PMS_P1;PMS_P2;Temp;Humidity;BMP_temperature;BMP_pressure;BME280_temperature;BME280_humidity;BME280_pressure;Samples;Min_cycle;Max_cycle;Signal;HPM_P1;HPM_P2
2022/03/12 00:00:48;;;;;;;8.73;6.60;;;;;;;;;;5011729;28;20480;-48
2022/03/12 00:03:14;;;;;;;10.63;6.70;;;;;;;;;;5011994;28;20434;-50
2022/03/12 00:05:52;;;;;;;11.07;6.30;;;;;;;;;;5012126;28;20456;-49
2022/03/12 00:08:41;;;;;;;6.60;5.60;;;;;;;;;;5012187;28;20402;-49
2022/03/12 00:11:07;;;;;;;11.90;6.43;;;;;;;;;;5011561;28;20520;-50
2022/03/12 00:13:33;;;;;;;9.03;6.53;;;;;;;;;;5011888;28;20407;-49
2022/03/12 00:16:00;;;;;;;7.10;5.63;;;;;;;;;;5012032;28;20490;-49
2022/03/12 00:18:30;;;;;;;8.63;6.60;;;;;;;;;;5011959;28;20412;-49
2022/03/12 00:20:57;;;;;;;12.07;6.97;;;;;;;;;;5011718;28;20512;-49
2022/03/12 00:23:25;;;;;;;7.50;6.70;;;;;;;;;;5011962;28;20405;-49
2022/03/12 00:25:52;;;;;;;8.77;6.50;;;;;;;;;;5011886;28;20412;-51
2022/03/12 00:28:19;;;;;;;7.57;5.87;;;;;;;;;;5011942;28;20491;-50
2022/03/12 00:30:47;;;;;;;7.97;6.40;;;;;;;;;;5011482;28;20454;-49
2022/03/12 00:33:13;;;;;;;7.17;6.47;;;;;;;;;;5011864;28;20414;-49
2022/03/12 00:35:39;;;;;;;9.00;5.77;;;;;;;;;;5011809;28;20748;-49
2022/03/12 00:38:05;;;;;;;11.03;6.97;;;;;;;;;;5011842;28;20873;-49
2022/03/12 00:40:31;;;;;;;10.70;6.60;;;;;;;;;;5011436;28;20443;-50
2022/03/12 00:42:57;;;;;;;8.67;7.87;;;;;;;;;;5011642;28;20766;-50
2022/03/12 00:45:24;;;;;;;8.87;6.17;;;;;;;;;;5012451;28;20406;-48
2022/03/12 00:47:51;;;;;;;8.17;6.57;;;;;;;;;;5011514;28;20408;-47
2022/03/12 00:50:17;;;;;;;7.77;6.27;;;;;;;;;;5011362;28;20505;-47
2022/03/12 00:52:43;;;;;;;7.90;5.67;;;;;;;;;;5014352;28;20408;-47
2022/03/12 00:55:09;;;;;;;9.63;5.90;;;;;;;;;;5015227;28;20407;-47
2022/03/12 00:57:36;;;;;;;18.33;6.93;;;;;;;;;;5015245;28;20796;-47
2022/03/12 01:00:02;;;;;;;10.40;6.50;;;;;;;;;;5014934;28;20486;-51
2022/03/12 01:02:28;;;;;;;9.27;6.17;;;;;;;;;;5015143;28;20883;-47
2022/03/12 01:04:55;;;;;;;10.27;7.30;;;;;;;;;;5015137;28;20957;-48
2022/03/12 01:07:21;;;;;;;10.63;6.37;;;;;;;;;;5015023;28;20473;-48
2022/03/12 01:09:47;;;;;;;7.73;6.23;;;;;;;;;;5014809;28;20403;-48
2022/03/12 01:12:13;;;;;;;13.87;6.70;;;;;;;;;;5014796;28;20561;-48
2022/03/12 01:14:39;;;;;;;9.70;6.60;;;;;;;;;;5014886;28;20405;-49
2022/03/12 01:17:06;;;;;;;10.50;6.97;;;;;;;;;;5014896;28;20402;-50
2022/03/12 01:19:34;;;;;;;8.97;6.37;;;;;;;;;;5014642;28;20457;-47
2022/03/12 01:22:01;;;;;;;10.87;6.10;;;;;;;;;;5014691;28;20458;-48
2022/03/12 01:24:28;;;;;;;7.63;6.30;;;;;;;;;;5014740;28;20733;-48
2022/03/12 01:26:54;;;;;;;7.90;6.20;;;;;;;;;;5014718;28;20431;-48
2022/03/12 01:29:20;;;;;;;8.87;5.90;;;;;;;;;;5014781;28;20450;-47
2022/03/12 01:31:46;;;;;;;6.77;5.67;;;;;;;;;;5014504;28;20454;-47
2022/03/12 01:34:12;;;;;;;9.83;6.40;;;;;;;;;;5014673;28;20911;-49
2022/03/12 01:36:38;;;;;;;7.67;6.40;;;;;;;;;;5014508;28;20766;-48
2022/03/12 01:39:04;;;;;;;16.57;7.83;;;;;;;;;;5014480;28;20761;-47
2022/03/12 01:41:31;;;;;;;8.27;6.20;;;;;;;;;;5014247;28;20418;-48
2022/03/12 01:43:57;;;;;;;10.00;6.73;;;;;;;;;;5014350;28;20793;-49
2022/03/12 01:46:32;;;;;;;7.73;6.50;;;;;;;;;;5014583;28;20410;-47
2022/03/12 01:48:59;;;;;;;8.47;6.87;;;;;;;;;;5014473;28;20403;-48
2022/03/12 01:51:26;;;;;;;6.77;5.40;;;;;;;;;;5013996;28;20459;-49
2022/03/12 01:53:52;;;;;;;11.30;7.57;;;;;;;;;;5014398;28;20507;-48
2022/03/12 01:56:18;;;;;;;16.50;6.43;;;;;;;;;;5014191;28;20942;-49
2022/03/12 01:58:47;;;;;;;10.10;6.40;;;;;;;;;;5014122;28;20399;-50
2022/03/12 02:01:14;;;;;;;11.50;6.90;;;;;;;;;;5013500;28;20437;-48
2022/03/12 02:03:42;;;;;;;9.77;6.73;;;;;;;;;;5012875;28;20422;-48
2022/03/12 02:06:08;;;;;;;11.30;7.17;;;;;;;;;;5013746;28;20811;-48
2022/03/12 02:08:34;;;;;;;8.97;6.33;;;;;;;;;;5013987;28;20407;-48
2022/03/12 02:10:59;;;;;;;8.23;6.40;;;;;;;;;;5013544;28;20516;-47
2022/03/12 02:13:33;;;;;;;10.23;6.73;;;;;;;;;;5013838;28;20411;-48
2022/03/12 02:16:05;;;;;;;12.83;6.97;;;;;;;;;;5013770;28;20845;-50
2022/03/12 02:18:31;;;;;;;9.30;7.07;;;;;;;;;;5013925;28;20384;-48
2022/03/12 02:20:58;;;;;;;8.67;6.70;;;;;;;;;;5013389;28;20432;-51
2022/03/12 02:23:24;;;;;;;11.13;7.67;;;;;;;;;;5013736;28;20444;-48
2022/03/12 02:25:50;;;;;;;11.37;7.77;;;;;;;;;;5013801;28;20411;-48
2022/03/12 02:28:17;;;;;;;10.40;6.73;;;;;;;;;;5013632;28;20468;-47
2022/03/12 02:30:54;;;;;;;10.03;6.90;;;;;;;;;;5013209;28;20464;-47
2022/03/12 02:33:24;;;;;;;8.10;6.27;;;;;;;;;;5013749;28;20430;-49
2022/03/12 02:35:52;;;;;;;12.43;7.00;;;;;;;;;;5013482;28;20402;-49
2022/03/12 02:38:21;;;;;;;9.73;5.83;;;;;;;;;;5013508;28;20460;-50
2022/03/12 02:40:49;;;;;;;10.47;7.27;;;;;;;;;;5013019;28;20944;-48
2022/03/12 02:43:20;;;;;;;8.10;6.80;;;;;;;;;;5013304;28;20403;-48
2022/03/12 02:45:48;;;;;;;11.37;7.13;;;;;;;;;;5013470;28;20863;-48
2022/03/12 02:48:14;;;;;;;10.03;6.50;;;;;;;;;;5013383;28;20418;-47
2022/03/12 02:50:43;;;;;;;9.43;7.43;;;;;;;;;;5012895;28;20451;-48
2022/03/12 02:53:08;;;;;;;9.77;6.37;;;;;;;;;;5013141;28;20395;-48
2022/03/12 02:55:37;;;;;;;10.03;6.60;;;;;;;;;;5013180;28;20918;-47
2022/03/12 02:58:09;;;;;;;12.77;7.53;;;;;;;;;;5013149;28;20408;-48
2022/03/12 03:00:36;;;;;;;7.87;6.13;;;;;;;;;;5012880;28;20926;-47
2022/03/12 03:03:05;;;;;;;8.43;6.27;;;;;;;;;;5012988;28;20422;-48
2022/03/12 03:08:03;;;;;;;8.00;6.43;;;;;;;;;;5012905;28;20460;-50
2022/03/12 03:10:34;;;;;;;9.50;6.57;;;;;;;;;;5012462;28;20472;-48
2022/03/12 03:13:16;;;;;;;11.03;7.03;;;;;;;;;;5011121;28;20416;-50
2022/03/12 03:15:47;;;;;;;7.57;6.10;;;;;;;;;;5012047;28;20457;-47
2022/03/12 03:18:13;;;;;;;7.37;6.43;;;;;;;;;;5012954;28;20450;-52
2022/03/12 03:20:40;;;;;;;9.70;7.13;;;;;;;;;;5012367;28;20480;-50
2022/03/12 03:23:08;;;;;;;10.87;6.73;;;;;;;;;;5012514;28;20414;-47
2022/03/12 03:25:34;;;;;;;7.40;6.00;;;;;;;;;;5012713;28;20415;-48
2022/03/12 03:28:01;;;;;;;10.83;7.80;;;;;;;;;;5012637;28;20414;-48
2022/03/12 03:30:33;;;;;;;13.90;6.80;;;;;;;;;;5012348;28;20957;-48
2022/03/12 03:32:59;;;;;;;8.23;6.80;;;;;;;;;;5012498;28;20488;-48
2022/03/12 03:35:25;;;;;;;8.60;7.03;;;;;;;;;;5012498;28;20491;-48
2022/03/12 03:37:51;;;;;;;9.07;6.70;;;;;;;;;;5012451;28;20405;-47
2022/03/12 03:40:17;;;;;;;9.53;6.80;;;;;;;;;;5012146;28;20429;-48
2022/03/12 03:42:45;;;;;;;8.83;6.97;;;;;;;;;;5012204;28;20515;-50
2022/03/12 03:45:21;;;;;;;11.37;6.57;;;;;;;;;;5012365;28;20410;-48
2022/03/12 03:47:49;;;;;;;12.50;7.30;;;;;;;;;;5012283;28;20402;-48
2022/03/12 03:50:14;;;;;;;11.97;7.80;;;;;;;;;;5012027;28;21141;-48
2022/03/12 03:52:40;;;;;;;10.10;7.03;;;;;;;;;;5012199;28;20477;-47
2022/03/12 03:55:09;;;;;;;8.43;6.13;;;;;;;;;;5012340;28;20768;-48
2022/03/12 03:57:35;;;;;;;11.70;7.47;;;;;;;;;;5012158;28;20399;-51
2022/03/12 04:00:03;;;;;;;9.57;6.83;;;;;;;;;;5012077;28;20767;-48
2022/03/12 04:02:29;;;;;;;13.33;7.30;;;;;;;;;;5011920;28;20456;-48
2022/03/12 04:04:55;;;;;;;9.70;6.50;;;;;;;;;;5012257;28;20404;-48
2022/03/12 04:07:25;;;;;;;7.73;6.93;;;;;;;;;;5012109;28;20418;-48
2022/03/12 04:09:51;;;;;;;12.20;7.07;;;;;;;;;;5011884;28;20404;-47
2022/03/12 04:12:17;;;;;;;11.50;7.00;;;;;;;;;;5011937;28;20549;-48
2022/03/12 04:14:47;;;;;;;8.03;6.60;;;;;;;;;;5012143;28;20403;-48
2022/03/12 04:17:15;;;;;;;11.63;7.30;;;;;;;;;;5011982;28;20459;-48
2022/03/12 04:19:43;;;;;;;11.90;6.60;;;;;;;;;;5011982;28;20405;-48
2022/03/12 04:22:09;;;;;;;12.87;7.20;;;;;;;;;;5011975;28;20428;-48
2022/03/12 04:24:35;;;;;;;10.53;7.50;;;;;;;;;;5012033;28;20466;-47
2022/03/12 04:27:03;;;;;;;10.67;8.20;;;;;;;;;;5015449;28;20884;-49
2022/03/12 04:29:29;;;;;;;12.40;7.17;;;;;;;;;;5015638;28;20400;-48
2022/03/12 04:31:55;;;;;;;8.83;7.20;;;;;;;;;;5015735;28;20527;-47
2022/03/12 04:34:21;;;;;;;11.47;7.67;;;;;;;;;;5015857;28;20458;-48
2022/03/12 04:36:49;;;;;;;13.20;7.37;;;;;;;;;;5015811;28;20942;-47
2022/03/12 04:39:16;;;;;;;9.43;7.00;;;;;;;;;;5015659;28;20398;-48
2022/03/12 04:41:42;;;;;;;8.37;6.07;;;;;;;;;;5015467;28;20425;-48
2022/03/12 04:44:09;;;;;;;11.23;6.10;;;;;;;;;;5015568;28;20416;-52
2022/03/12 04:46:36;;;;;;;13.53;6.40;;;;;;;;;;5016016;28;20822;-48
2022/03/12 04:49:04;;;;;;;8.57;6.40;;;;;;;;;;5015500;28;20402;-51
2022/03/12 04:51:30;;;;;;;12.97;7.50;;;;;;;;;;5015173;28;20458;-47
2022/03/12 04:54:03;;;;;;;9.70;6.43;;;;;;;;;;5015344;28;20495;-48
2022/03/12 04:56:31;;;;;;;7.73;6.63;;;;;;;;;;5015452;28;20400;-48
2022/03/12 04:58:57;;;;;;;10.70;7.20;;;;;;;;;;5015185;28;20407;-51
2022/03/12 05:01:24;;;;;;;12.27;7.00;;;;;;;;;;5015118;28;20425;-47
2022/03/12 05:03:50;;;;;;;13.50;7.80;;;;;;;;;;5015202;28;20435;-48
2022/03/12 05:06:17;;;;;;;10.27;7.27;;;;;;;;;;5015352;28;20414;-48
2022/03/12 05:08:44;;;;;;;11.90;7.60;;;;;;;;;;5015113;28;20404;-50
2022/03/12 05:11:11;;;;;;;9.70;7.07;;;;;;;;;;5014582;28;20468;-51
2022/03/12 05:13:37;;;;;;;11.53;8.00;;;;;;;;;;5014872;28;20406;-50
2022/03/12 05:16:06;;;;;;;8.60;7.23;;;;;;;;;;5014944;28;20923;-50
2022/03/12 05:18:36;;;;;;;14.80;6.87;;;;;;;;;;5014917;28;20427;-50
2022/03/12 05:21:04;;;;;;;13.07;7.10;;;;;;;;;;5014613;28;20522;-50
2022/03/12 05:23:30;;;;;;;9.40;7.20;;;;;;;;;;5014710;28;20407;-50
2022/03/12 05:25:56;;;;;;;8.77;6.90;;;;;;;;;;5014585;28;20432;-50
2022/03/12 05:28:26;;;;;;;10.17;7.77;;;;;;;;;;5014709;28;20886;-50
2022/03/12 05:30:59;;;;;;;10.87;7.10;;;;;;;;;;5014691;28;20826;-50
2022/03/12 05:33:26;;;;;;;12.40;8.50;;;;;;;;;;5014648;28;20904;-50
2022/03/12 05:35:54;;;;;;;8.43;6.73;;;;;;;;;;5014694;28;20403;-50
2022/03/12 05:38:20;;;;;;;9.30;7.07;;;;;;;;;;5013558;28;20403;-51
2022/03/12 05:40:48;;;;;;;8.63;7.17;;;;;;;;;;5014154;28;20420;-51
2022/03/12 05:43:15;;;;;;;11.17;8.00;;;;;;;;;;5014499;28;20416;-51
2022/03/12 05:45:42;;;;;;;12.70;8.63;;;;;;;;;;5014475;28;20399;-50
2022/03/12 05:48:10;;;;;;;12.40;7.33;;;;;;;;;;5014384;28;20920;-50
2022/03/12 05:50:37;;;;;;;11.00;7.50;;;;;;;;;;5013952;28;20528;-51
2022/03/12 05:53:02;;;;;;;10.10;7.60;;;;;;;;;;5014061;28;20778;-50
2022/03/12 05:55:28;;;;;;;9.70;7.20;;;;;;;;;;5013618;28;20407;-48
2022/03/12 05:57:56;;;;;;;12.20;7.40;;;;;;;;;;5013312;28;20871;-48
2022/03/12 06:00:22;;;;;;;10.70;7.00;;;;;;;;;;5013026;28;20423;-50
2022/03/12 06:02:52;;;;;;;9.20;7.40;;;;;;;;;;5011235;28;20775;-48
2022/03/12 06:05:24;;;;;;;8.40;6.43;;;;;;;;;;5013412;28;20428;-48
2022/03/12 06:07:51;;;;;;;9.90;7.43;;;;;;;;;;5014569;28;20399;-48
2022/03/12 06:10:18;;;;;;;10.97;8.30;;;;;;;;;;5013636;28;20426;-48
2022/03/12 06:12:45;;;;;;;12.60;7.00;;;;;;;;;;5014037;28;20395;-49
2022/03/12 06:15:13;;;;;;;9.30;7.80;;;;;;;;;;5013931;28;20412;-48
2022/03/12 06:17:41;;;;;;;13.23;7.10;;;;;;;;;;5013881;28;20441;-48
2022/03/12 06:20:10;;;;;;;12.37;8.73;;;;;;;;;;5013412;28;20502;-50
2022/03/12 06:22:37;;;;;;;11.10;7.63;;;;;;;;;;5013663;28;20408;-47
2022/03/12 06:25:04;;;;;;;11.53;7.60;;;;;;;;;;5013801;28;20463;-48
2022/03/12 06:27:30;;;;;;;10.33;7.87;;;;;;;;;;5013951;28;20415;-48
2022/03/12 06:29:56;;;;;;;11.63;7.83;;;;;;;;;;5013312;28;20405;-48
2022/03/12 06:32:23;;;;;;;8.17;6.93;;;;;;;;;;5013504;28;20453;-47
2022/03/12 06:34:49;;;;;;;15.80;7.50;;;;;;;;;;5013428;28;20411;-48
2022/03/12 06:37:15;;;;;;;8.60;6.37;;;;;;;;;;5013517;28;20412;-48
2022/03/12 06:39:41;;;;;;;13.67;6.80;;;;;;;;;;5013329;28;20409;-48
2022/03/12 06:42:07;;;;;;;11.17;7.03;;;;;;;;;;5013678;28;20516;-48
2022/03/12 06:44:36;;;;;;;11.40;8.10;;;;;;;;;;5013441;28;20415;-48
2022/03/12 06:47:04;;;;;;;10.17;7.87;;;;;;;;;;5014363;28;20450;-51
2022/03/12 06:49:32;;;;;;;10.30;6.90;;;;;;;;;;5012933;28;20956;-51
2022/03/12 06:51:58;;;;;;;7.43;6.50;;;;;;;;;;5012967;28;20561;-52
2022/03/12 06:54:26;;;;;;;10.50;6.70;;;;;;;;;;5013289;28;20450;-53
2022/03/12 06:56:54;;;;;;;12.57;7.27;;;;;;;;;;5013098;28;20399;-53
2022/03/12 06:59:20;;;;;;;14.07;7.60;;;;;;;;;;5013027;28;20406;-52
2022/03/12 07:01:46;;;;;;;9.47;7.50;;;;;;;;;;5012787;28;20422;-52
2022/03/12 07:04:12;;;;;;;10.00;6.73;;;;;;;;;;5012817;28;20431;-52
2022/03/12 07:06:38;;;;;;;9.03;7.03;;;;;;;;;;5013055;28;20490;-51
2022/03/12 07:09:06;;;;;;;12.30;7.73;;;;;;;;;;5012838;28;20399;-52
2022/03/12 07:11:32;;;;;;;12.13;7.40;;;;;;;;;;5012695;28;20837;-51
2022/03/12 07:14:01;;;;;;;11.00;7.53;;;;;;;;;;5012797;28;20835;-52
2022/03/12 07:16:27;;;;;;;16.63;7.50;;;;;;;;;;5012944;28;20443;-53
2022/03/12 07:18:56;;;;;;;10.00;7.47;;;;;;;;;;5012856;28;20410;-53
2022/03/12 07:21:22;;;;;;;7.07;6.37;;;;;;;;;;5012480;28;20428;-53
2022/03/12 07:23:48;;;;;;;9.80;7.13;;;;;;;;;;5012571;28;20738;-53
2022/03/12 07:26:14;;;;;;;8.80;6.93;;;;;;;;;;5012671;28;20407;-53
2022/03/12 07:28:40;;;;;;;9.43;6.80;;;;;;;;;;5012622;28;20485;-53
2022/03/12 07:31:07;;;;;;;8.30;7.37;;;;;;;;;;5012251;28;20458;-53
2022/03/12 07:33:33;;;;;;;9.70;7.40;;;;;;;;;;5012586;28;20914;-53
2022/03/12 07:36:00;;;;;;;10.27;7.50;;;;;;;;;;5012864;28;20487;-53
2022/03/12 07:38:26;;;;;;;9.87;6.40;;;;;;;;;;5012843;28;20410;-53
2022/03/12 07:40:53;;;;;;;10.07;6.90;;;;;;;;;;5012135;28;20424;-50
2022/03/12 07:43:20;;;;;;;10.00;7.20;;;;;;;;;;5012426;28;20423;-52
2022/03/12 07:45:46;;;;;;;9.13;6.97;;;;;;;;;;5012390;28;20412;-53
2022/03/12 07:48:13;;;;;;;9.43;7.07;;;;;;;;;;5012325;28;20506;-53
2022/03/12 07:50:40;;;;;;;8.30;6.67;;;;;;;;;;5011964;28;20541;-51
2022/03/12 07:53:08;;;;;;;15.40;7.00;;;;;;;;;;5012285;28;20478;-53
2022/03/12 07:55:36;;;;;;;8.73;7.30;;;;;;;;;;5012325;28;20487;-52
2022/03/12 07:58:02;;;;;;;10.00;7.80;;;;;;;;;;5012098;28;20405;-53
2022/03/12 08:00:30;;;;;;;8.00;6.83;;;;;;;;;;5011465;28;20526;-54
2022/03/12 08:03:43;;;;;;;9.47;6.97;;;;;;;;;;5011573;28;20417;-54
2022/03/12 08:06:09;;;;;;;7.40;6.07;;;;;;;;;;5012241;28;20370;-53
2022/03/12 08:08:36;;;;;;;9.70;7.03;;;;;;;;;;5012027;28;20422;-53
2022/03/12 08:13:47;;;;;;;10.83;7.10;;;;;;;;;;5012548;28;20373;-54
2022/03/12 08:16:13;;;;;;;8.00;6.20;;;;;;;;;;5011886;28;20382;-52
2022/03/12 08:18:40;;;;;;;8.90;7.23;;;;;;;;;;5012004;28;20914;-52
2022/03/12 08:21:06;;;;;;;9.07;7.73;;;;;;;;;;5011770;28;20430;-52
2022/03/12 08:23:33;;;;;;;8.37;7.27;;;;;;;;;;5012060;28;20385;-52
2022/03/12 08:26:00;;;;;;;13.23;10.20;;;;;;;;;;4994872;28;20772;-52
2022/03/12 08:28:26;;;;;;;7.23;6.03;;;;;;;;;;5011930;28;20385;-52
2022/03/12 08:30:52;;;;;;;6.50;5.83;;;;;;;;;;5011577;28;20437;-53
2022/03/12 08:33:20;;;;;;;8.33;6.57;;;;;;;;;;5011854;28;20464;-53
2022/03/12 08:35:46;;;;;;;12.33;6.47;;;;;;;;;;5011456;28;20380;-53
2022/03/12 08:38:12;;;;;;;8.13;7.23;;;;;;;;;;5011895;28;20394;-53
2022/03/12 08:40:38;;;;;;;8.40;5.80;;;;;;;;;;5011907;28;20831;-53
2022/03/12 08:43:06;;;;;;;9.40;7.07;;;;;;;;;;5011580;28;20414;-50
2022/03/12 08:45:32;;;;;;;13.03;7.30;;;;;;;;;;5013509;28;20405;-49
2022/03/12 08:47:58;;;;;;;8.40;6.93;;;;;;;;;;5013511;28;20381;-51
2022/03/12 08:50:25;;;;;;;8.17;6.53;;;;;;;;;;5011285;28;20482;-51
2022/03/12 08:52:52;;;;;;;8.20;6.97;;;;;;;;;;5011633;28;20403;-49
2022/03/12 08:55:18;;;;;;;10.23;6.77;;;;;;;;;;5011809;28;20766;-50
2022/03/12 08:57:44;;;;;;;6.80;6.00;;;;;;;;;;5011549;28;20409;-53
2022/03/12 09:00:12;;;;;;;6.80;5.37;;;;;;;;;;5011403;28;20429;-53
2022/03/12 09:02:38;;;;;;;7.37;6.60;;;;;;;;;;5011609;28;20426;-51
2022/03/12 09:05:05;;;;;;;7.53;6.20;;;;;;;;;;5011591;28;20413;-53
2022/03/12 09:07:32;;;;;;;7.70;6.70;;;;;;;;;;5011584;28;20395;-53
2022/03/12 09:09:58;;;;;;;6.90;6.20;;;;;;;;;;5011353;28;20604;-53
2022/03/12 09:12:25;;;;;;;9.13;7.40;;;;;;;;;;5012246;28;20529;-53
2022/03/12 09:14:51;;;;;;;8.20;6.40;;;;;;;;;;5015088;28;20376;-53
2022/03/12 09:17:17;;;;;;;7.30;6.30;;;;;;;;;;5015258;28;20405;-52
2022/03/12 09:19:43;;;;;;;9.47;7.23;;;;;;;;;;5015005;28;20820;-53
2022/03/12 09:22:09;;;;;;;9.00;8.10;;;;;;;;;;5015004;28;20941;-52
2022/03/12 09:24:38;;;;;;;7.30;6.50;;;;;;;;;;5015019;28;20452;-51
2022/03/12 09:27:04;;;;;;;9.60;6.30;;;;;;;;;;5013945;28;20401;-52
2022/03/12 09:29:32;;;;;;;6.60;5.90;;;;;;;;;;5014865;28;20377;-53
2022/03/12 09:31:58;;;;;;;13.57;6.90;;;;;;;;;;5014715;28;20458;-53
2022/03/12 09:34:24;;;;;;;9.40;7.03;;;;;;;;;;5015308;28;20408;-53
2022/03/12 09:36:50;;;;;;;9.67;7.30;;;;;;;;;;5014928;28;20824;-51
2022/03/12 09:39:16;;;;;;;7.73;6.20;;;;;;;;;;5014419;28;20407;-52
2022/03/12 09:41:43;;;;;;;9.60;6.23;;;;;;;;;;5014124;28;20517;-51
2022/03/12 09:44:09;;;;;;;9.43;6.97;;;;;;;;;;5014585;28;20406;-52
2022/03/12 09:46:36;;;;;;;7.27;5.90;;;;;;;;;;5014716;28;20417;-53
2022/03/12 09:49:04;;;;;;;8.60;6.53;;;;;;;;;;5014424;28;20403;-53
2022/03/12 09:51:31;;;;;;;8.80;7.63;;;;;;;;;;5014265;28;20462;-53
2022/03/12 09:53:57;;;;;;;8.30;6.23;;;;;;;;;;5014294;28;20769;-53
2022/03/12 09:56:24;;;;;;;6.40;5.70;;;;;;;;;;5014322;28;20453;-52
2022/03/12 09:58:50;;;;;;;7.73;6.80;;;;;;;;;;5014359;28;20498;-50
2022/03/12 10:01:16;;;;;;;8.03;7.23;;;;;;;;;;5014015;28;20411;-52
2022/03/12 10:03:42;;;;;;;6.90;6.20;;;;;;;;;;5014244;28;20905;-53
2022/03/12 10:06:10;;;;;;;7.27;6.33;;;;;;;;;;5014156;28;20428;-53
2022/03/12 10:08:36;;;;;;;9.17;7.93;;;;;;;;;;5014108;28;20403;-53
2022/03/12 10:11:02;;;;;;;7.27;6.30;;;;;;;;;;5013768;28;20447;-53
2022/03/12 10:13:28;;;;;;;10.03;6.13;;;;;;;;;;5014009;28;20409;-53
2022/03/12 10:15:54;;;;;;;12.10;6.23;;;;;;;;;;5013880;28;20837;-53
2022/03/12 10:18:20;;;;;;;7.80;6.10;;;;;;;;;;5014129;28;20435;-49
2022/03/12 10:20:47;;;;;;;9.07;6.60;;;;;;;;;;5013657;28;20465;-49
2022/03/12 10:23:13;;;;;;;7.03;6.33;;;;;;;;;;5013271;28;20912;-50
2022/03/12 10:25:39;;;;;;;7.47;6.60;;;;;;;;;;5013723;28;20407;-52
2022/03/12 10:28:05;;;;;;;10.03;6.53;;;;;;;;;;5013743;28;20403;-48
2022/03/12 10:30:31;;;;;;;7.63;6.80;;;;;;;;;;5013113;28;20565;-50
2022/03/12 10:32:57;;;;;;;8.23;6.60;;;;;;;;;;5013553;28;20497;-51
2022/03/12 10:35:24;;;;;;;8.17;7.30;;;;;;;;;;5012460;28;20409;-50
2022/03/12 10:37:51;;;;;;;8.43;6.80;;;;;;;;;;5013496;28;20403;-51
2022/03/12 10:40:19;;;;;;;11.40;6.30;;;;;;;;;;5013063;28;20415;-51
2022/03/12 10:42:59;;;;;;;7.30;6.60;;;;;;;;;;5013280;28;20475;-51
2022/03/12 10:45:27;;;;;;;8.13;6.73;;;;;;;;;;5013440;28;20397;-50
2022/03/12 10:47:57;;;;;;;9.60;7.50;;;;;;;;;;5013328;28;20486;-50
2022/03/12 10:50:25;;;;;;;7.10;6.40;;;;;;;;;;5012856;28;20425;-50
2022/03/12 10:52:52;;;;;;;7.47;6.63;;;;;;;;;;5013340;28;20492;-51
2022/03/12 10:55:26;;;;;;;9.57;6.90;;;;;;;;;;5013201;28;20449;-51
2022/03/12 10:57:56;;;;;;;7.23;6.53;;;;;;;;;;5013400;28;20493;-51
2022/03/12 11:00:22;;;;;;;6.60;5.80;;;;;;;;;;5013098;28;20430;-53
2022/03/12 11:02:57;;;;;;;7.30;6.10;;;;;;;;;;5012935;28;20434;-53
2022/03/12 11:05:34;;;;;;;8.20;6.43;;;;;;;;;;5013162;28;20402;-53
2022/03/12 11:08:17;;;;;;;7.60;6.80;;;;;;;;;;5013108;28;20406;-53
2022/03/12 11:10:44;;;;;;;7.87;6.47;;;;;;;;;;5013047;28;20529;-51
2022/03/12 11:13:11;;;;;;;8.27;6.60;;;;;;;;;;5012715;28;20410;-53
2022/03/12 11:15:40;;;;;;;7.93;6.50;;;;;;;;;;5012984;28;20409;-51
2022/03/12 11:18:07;;;;;;;9.50;6.40;;;;;;;;;;5012886;28;20400;-53
2022/03/12 11:20:35;;;;;;;6.73;6.03;;;;;;;;;;5012512;28;20420;-53
2022/03/12 11:23:13;;;;;;;8.13;7.00;;;;;;;;;;5012802;28;20405;-53
2022/03/12 11:25:54;;;;;;;6.90;6.20;;;;;;;;;;5012673;28;20412;-54
2022/03/12 11:28:20;;;;;;;7.73;6.80;;;;;;;;;;5012536;28;20408;-54
2022/03/12 11:30:47;;;;;;;6.90;6.20;;;;;;;;;;5012219;28;20454;-53
2022/03/12 11:33:13;;;;;;;7.57;6.83;;;;;;;;;;5012957;28;20739;-52
2022/03/12 11:35:44;;;;;;;8.63;7.20;;;;;;;;;;5012353;28;20833;-53
2022/03/12 11:38:22;;;;;;;8.33;7.43;;;;;;;;;;5012548;28;20413;-53
2022/03/12 11:40:49;;;;;;;8.23;6.60;;;;;;;;;;5012072;28;20492;-52
2022/03/12 11:43:25;;;;;;;8.27;6.00;;;;;;;;;;5012195;28;20442;-53
2022/03/12 11:45:55;;;;;;;7.73;6.70;;;;;;;;;;5012428;28;20407;-53
2022/03/12 11:48:22;;;;;;;6.97;6.27;;;;;;;;;;5012550;28;20402;-51
2022/03/12 11:50:48;;;;;;;9.23;6.97;;;;;;;;;;5011861;28;20511;-53
2022/03/12 11:53:17;;;;;;;7.43;6.23;;;;;;;;;;5012329;28;20403;-54
2022/03/12 11:55:43;;;;;;;11.23;6.40;;;;;;;;;;5012251;28;20804;-53
2022/03/12 11:58:09;;;;;;;8.07;7.27;;;;;;;;;;5012207;28;20781;-53
2022/03/12 12:00:35;;;;;;;8.40;7.17;;;;;;;;;;5011798;28;20430;-53
2022/03/12 12:03:01;;;;;;;8.10;7.27;;;;;;;;;;5012079;28;20422;-53
2022/03/12 12:05:30;;;;;;;7.10;6.40;;;;;;;;;;5012144;28;20906;-54
2022/03/12 12:07:57;;;;;;;7.97;5.83;;;;;;;;;;5012177;28;20777;-53
2022/03/12 12:10:27;;;;;;;13.90;6.50;;;;;;;;;;5011594;28;20423;-51
2022/03/12 12:12:53;;;;;;;8.90;6.20;;;;;;;;;;5012043;28;20410;-51
2022/03/12 12:15:26;;;;;;;7.20;6.47;;;;;;;;;;5011974;28;20404;-52
2022/03/12 12:17:52;;;;;;;7.53;6.03;;;;;;;;;;5012061;28;20396;-50
2022/03/12 12:20:20;;;;;;;11.97;6.87;;;;;;;;;;5011758;28;20911;-50
2022/03/12 12:22:46;;;;;;;6.80;6.20;;;;;;;;;;5010834;28;20487;-54
2022/03/12 12:25:13;;;;;;;8.13;6.33;;;;;;;;;;5011793;28;20485;-53
2022/03/12 12:27:43;;;;;;;10.80;6.93;;;;;;;;;;5011772;28;20775;-53
2022/03/12 12:30:10;;;;;;;6.70;6.10;;;;;;;;;;5011674;28;20426;-51
2022/03/12 12:32:44;;;;;;;6.30;5.70;;;;;;;;;;4994222;28;20458;-50
2022/03/12 12:35:12;;;;;;;9.20;6.77;;;;;;;;;;5011936;28;20805;-50
2022/03/12 12:37:47;;;;;;;14.10;7.00;;;;;;;;;;5011813;28;20443;-52
2022/03/12 12:40:20;;;;;;;8.10;7.20;;;;;;;;;;5011569;28;20421;-50
2022/03/12 12:42:46;;;;;;;8.80;6.70;;;;;;;;;;5011665;28;20395;-50
2022/03/12 12:45:16;;;;;;;7.17;6.47;;;;;;;;;;5012472;28;20415;-49
2022/03/12 12:47:42;;;;;;;7.57;6.47;;;;;;;;;;5014826;28;20458;-48
2022/03/12 12:50:25;;;;;;;9.40;6.47;;;;;;;;;;5015676;28;20518;-50
2022/03/12 12:53:11;;;;;;;8.20;6.67;;;;;;;;;;5015391;28;20415;-51
2022/03/12 12:55:37;;;;;;;6.27;5.67;;;;;;;;;;5015478;28;20898;-51
2022/03/12 12:58:03;;;;;;;6.97;6.27;;;;;;;;;;5015293;28;20403;-50
2022/03/12 13:00:33;;;;;;;8.50;5.90;;;;;;;;;;5015000;28;20394;-49
2022/03/12 13:03:00;;;;;;;9.77;6.80;;;;;;;;;;5015006;28;20414;-50
2022/03/12 13:05:45;;;;;;;9.10;7.20;;;;;;;;;;5015214;28;20494;-51
2022/03/12 13:08:11;;;;;;;7.23;6.63;;;;;;;;;;5014180;28;20366;-50
2022/03/12 13:10:38;;;;;;;9.87;6.93;;;;;;;;;;5013879;28;20423;-50
2022/03/12 13:13:09;;;;;;;7.40;6.17;;;;;;;;;;5013990;28;20410;-51
2022/03/12 13:15:39;;;;;;;8.23;7.00;;;;;;;;;;5015096;28;20402;-50
2022/03/12 13:18:20;;;;;;;7.17;6.00;;;;;;;;;;5015093;28;20406;-50
2022/03/12 13:20:50;;;;;;;8.97;6.70;;;;;;;;;;5014727;28;20416;-51
2022/03/12 13:23:17;;;;;;;7.77;5.87;;;;;;;;;;5014725;28;20823;-51
2022/03/12 13:25:51;;;;;;;6.23;5.63;;;;;;;;;;5014916;28;20413;-51
2022/03/12 13:28:35;;;;;;;8.43;6.80;;;;;;;;;;5015082;28;20409;-49
2022/03/12 13:31:03;;;;;;;7.30;5.67;;;;;;;;;;5014567;28;20438;-51
2022/03/12 13:33:29;;;;;;;8.10;5.40;;;;;;;;;;5014906;28;20437;-50
2022/03/12 13:35:55;;;;;;;7.33;5.67;;;;;;;;;;5014781;28;20910;-50
2022/03/12 13:38:23;;;;;;;8.03;6.63;;;;;;;;;;5013553;28;20422;-50
2022/03/12 13:40:49;;;;;;;8.83;6.10;;;;;;;;;;5016471;28;20439;-50
2022/03/12 13:43:15;;;;;;;6.27;5.63;;;;;;;;;;4996859;28;20913;-50
2022/03/12 13:45:41;;;;;;;6.97;6.30;;;;;;;;;;5014338;28;20412;-51
2022/03/12 13:48:08;;;;;;;6.80;6.10;;;;;;;;;;5014547;28;20389;-51
2022/03/12 13:50:34;;;;;;;11.33;5.70;;;;;;;;;;5014309;28;20407;-50
2022/03/12 13:53:01;;;;;;;10.47;6.27;;;;;;;;;;5014339;28;20455;-51
2022/03/12 13:55:27;;;;;;;8.10;6.40;;;;;;;;;;5014250;28;20731;-51
2022/03/12 13:58:01;;;;;;;7.73;5.87;;;;;;;;;;5013503;28;20796;-50
2022/03/12 14:00:28;;;;;;;7.13;5.20;;;;;;;;;;5013794;28;20404;-49
2022/03/12 14:02:56;;;;;;;7.77;6.07;;;;;;;;;;5014029;28;20403;-51
2022/03/12 14:05:39;;;;;;;6.80;6.20;;;;;;;;;;5014114;28;20381;-51
2022/03/12 14:08:19;;;;;;;14.97;6.10;;;;;;;;;;5013864;28;20397;-51
2022/03/12 14:10:45;;;;;;;10.20;5.70;;;;;;;;;;5013775;28;20531;-50
2022/03/12 14:13:12;;;;;;;8.30;6.60;;;;;;;;;;5013999;28;20374;-51
2022/03/12 14:15:38;;;;;;;8.53;6.67;;;;;;;;;;5013908;28;20379;-51
2022/03/12 14:18:08;;;;;;;8.33;6.20;;;;;;;;;;5013869;28;20409;-50
2022/03/12 14:20:43;;;;;;;7.00;5.97;;;;;;;;;;5012371;28;20476;-50
2022/03/12 14:23:09;;;;;;;6.70;5.97;;;;;;;;;;5013013;28;20476;-51
2022/03/12 14:25:37;;;;;;;8.30;5.53;;;;;;;;;;5013323;28;20402;-50
2022/03/12 14:28:05;;;;;;;7.30;5.50;;;;;;;;;;5013341;28;20459;-51
2022/03/12 14:30:32;;;;;;;6.87;5.73;;;;;;;;;;5013272;28;20429;-51
2022/03/12 14:32:58;;;;;;;11.53;6.13;;;;;;;;;;5013968;28;20384;-50
2022/03/12 14:35:28;;;;;;;6.00;5.40;;;;;;;;;;5013450;28;20376;-52
2022/03/12 14:37:55;;;;;;;10.63;5.50;;;;;;;;;;5013589;28;20422;-51
2022/03/12 14:40:22;;;;;;;7.17;5.70;;;;;;;;;;5013277;28;20457;-52
2022/03/12 14:42:48;;;;;;;6.47;5.83;;;;;;;;;;5013478;28;20400;-50
2022/03/12 14:45:16;;;;;;;7.70;5.73;;;;;;;;;;5013443;28;20393;-51
2022/03/12 14:47:42;;;;;;;6.07;5.30;;;;;;;;;;5013542;28;20799;-50